sensor_id;sensor_type;location;lat;lon;timestamp;temperature;humidity
2162;DHT22;1087;50.226;8.682;2023-02-18T00:01:24;11.90;99.90
2162;DHT22;1087;50.226;8.682;2023-02-18T00:03:50;11.90;99.90
2162;DHT22;1087;50.226;8.682;2023-02-18T00:06:28;12.00;99.90
2162;DHT22;1087;50.226;8.682;2023-02-18T00:08:54;11.90;99.90
2162;DHT22;1087;50.226;8.682;2023-02-18T00:11:24;11.90;99.90
2162;DHT22;1087;50.226;8.682;2023-02-18T00:13:54;11.90;99.90
2162;DHT22;1087;50.226;8.682;2023-02-18T00:16:21;11.80;99.90
2162;DHT22;1087;50.226;8.682;2023-02-18T00:18:47;11.80;99.90
2162;DHT22;1087;50.226;8.682;2023-02-18T00:21:13;11.80;99.90
2162;DHT22;1087;50.226;8.682;2023-02-18T00:23:38;11.90;99.90
2162;DHT22;1087;50.226;8.682;2023-02-18T00:26:07;11.90;99.90
2162;DHT22;1087;50.226;8.682;2023-02-18T00:28:33;11.80;99.90
2162;DHT22;1087;50.226;8.682;2023-02-18T00:30:58;11.80;99.90
2162;DHT22;1087;50.226;8.682;2023-02-18T00:33:24;11.80;99.90
2162;DHT22;1087;50.226;8.682;2023-02-18T00:35:50;11.80;99.90
2162;DHT22;1087;50.226;8.682;2023-02-18T00:38:15;11.70;99.90
2162;DHT22;1087;50.226;8.682;2023-02-18T00:40:41;11.70;99.90
2162;DHT22;1087;50.226;8.682;2023-02-18T00:43:08;11.70;99.90
2162;DHT22;1087;50.226;8.682;2023-02-18T00:45:33;11.70;99.90
2162;DHT22;1087;50.226;8.682;2023-02-18T00:47:59;11.60;99.90
2162;DHT22;1087;50.226;8.682;2023-02-18T00:50:24;11.60;99.90
2162;DHT22;1087;50.226;8.682;2023-02-18T00:52:50;11.70;99.90
2162;DHT22;1087;50.226;8.682;2023-02-18T00:55:15;11.70;99.90
2162;DHT22;1087;50.226;8.682;2023-02-18T00:57:41;11.70;99.90
2162;DHT22;1087;50.226;8.682;2023-02-18T01:00:08;11.70;99.90
2162;DHT22;1087;50.226;8.682;2023-02-18T01:02:33;11.70;99.90
2162;DHT22;1087;50.226;8.682;2023-02-18T01:04:59;11.70;99.90
2162;DHT22;1087;50.226;8.682;2023-02-18T01:07:25;11.60;99.90
2162;DHT22;1087;50.226;8.682;2023-02-18T01:09:51;11.60;99.90
2162;DHT22;1087;50.226;8.682;2023-02-18T01:12:16;11.60;99.90
2162;DHT22;1087;50.226;8.682;2023-02-18T01:14:42;11.70;99.90
2162;DHT22;1087;50.226;8.682;2023-02-18T01:17:08;11.80;99.90
2162;DHT22;1087;50.226;8.682;2023-02-18T01:19:33;11.80;99.90
2162;DHT22;1087;50.226;8.682;2023-02-18T01:21:59;11.70;99.90
2162;DHT22;1087;50.226;8.682;2023-02-18T01:24:25;11.70;99.90
2162;DHT22;1087;50.226;8.682;2023-02-18T01:26:50;11.70;99.90
2162;DHT22;1087;50.226;8.682;2023-02-18T01:29:16;11.70;99.90
2162;DHT22;1087;50.226;8.682;2023-02-18T01:31:42;11.70;99.90
2162;DHT22;1087;50.226;8.682;2023-02-18T01:34:07;11.60;99.90
2162;DHT22;1087;50.226;8.682;2023-02-18T01:36:33;11.60;99.90
2162;DHT22;1087;50.226;8.682;2023-02-18T01:38:58;11.60;99.90
2162;DHT22;1087;50.226;8.682;2023-02-18T01:41:24;11.70;99.90
2162;DHT22;1087;50.226;8.682;2023-02-18T01:44:10;11.70;99.90
2162;DHT22;1087;50.226;8.682;2023-02-18T01:46:37;11.70;99.90
2162;DHT22;1087;50.226;8.682;2023-02-18T01:49:02;11.60;99.90
2162;DHT22;1087;50.226;8.682;2023-02-18T01:51:31;11.60;99.90
2162;DHT22;1087;50.226;8.682;2023-02-18T01:56:35;11.70;99.90
2162;DHT22;1087;50.226;8.682;2023-02-18T01:59:05;11.80;99.90
2162;DHT22;1087;50.226;8.682;2023-02-18T02:01:32;11.70;99.90
2162;DHT22;1087;50.226;8.682;2023-02-18T02:03:58;11.60;99.90
2162;DHT22;1087;50.226;8.682;2023-02-18T02:06:24;11.60;99.90
2162;DHT22;1087;50.226;8.682;2023-02-18T02:08:53;11.50;99.90
2162;DHT22;1087;50.226;8.682;2023-02-18T02:17:05;11.50;99.90
2162;DHT22;1087;50.226;8.682;2023-02-18T02:36:40;11.40;99.90
2162;DHT22;1087;50.226;8.682;2023-02-18T02:42:18;11.50;99.90
2162;DHT22;1087;50.226;8.682;2023-02-18T02:47:28;11.60;99.90
2162;DHT22;1087;50.226;8.682;2023-02-18T02:50:07;11.50;99.90
2162;DHT22;1087;50.226;8.682;2023-02-18T02:52:43;11.50;99.90
2162;DHT22;1087;50.226;8.682;2023-02-18T02:55:11;11.50;99.90
2162;DHT22;1087;50.226;8.682;2023-02-18T02:57:43;11.50;99.90
2162;DHT22;1087;50.226;8.682;2023-02-18T03:00:11;11.50;99.90
2162;DHT22;1087;50.226;8.682;2023-02-18T03:19:28;11.40;99.90
2162;DHT22;1087;50.226;8.682;2023-02-18T03:21:59;11.30;99.90
2162;DHT22;1087;50.226;8.682;2023-02-18T03:24:34;11.40;99.90
2162;DHT22;1087;50.226;8.682;2023-02-18T03:27:24;11.40;99.90
2162;DHT22;1087;50.226;8.682;2023-02-18T03:29:56;11.40;99.90
2162;DHT22;1087;50.226;8.682;2023-02-18T03:32:24;11.40;99.90
2162;DHT22;1087;50.226;8.682;2023-02-18T03:34:55;11.40;99.90
2162;DHT22;1087;50.226;8.682;2023-02-18T03:37:23;11.30;99.90
2162;DHT22;1087;50.226;8.682;2023-02-18T03:39:51;11.30;99.90
2162;DHT22;1087;50.226;8.682;2023-02-18T03:42:18;11.40;99.90
2162;DHT22;1087;50.226;8.682;2023-02-18T03:44:44;11.40;99.90
2162;DHT22;1087;50.226;8.682;2023-02-18T03:47:10;11.40;99.90
2162;DHT22;1087;50.226;8.682;2023-02-18T03:49:36;11.50;99.90
2162;DHT22;1087;50.226;8.682;2023-02-18T03:52:02;11.50;99.90
2162;DHT22;1087;50.226;8.682;2023-02-18T03:54:27;11.40;99.90
2162;DHT22;1087;50.226;8.682;2023-02-18T03:56:53;11.50;99.90
2162;DHT22;1087;50.226;8.682;2023-02-18T03:59:18;11.40;99.90
2162;DHT22;1087;50.226;8.682;2023-02-18T04:01:44;11.40;99.90
2162;DHT22;1087;50.226;8.682;2023-02-18T04:04:10;11.40;99.90
2162;DHT22;1087;50.226;8.682;2023-02-18T04:06:35;11.50;99.90
2162;DHT22;1087;50.226;8.682;2023-02-18T04:09:01;11.40;99.90
2162;DHT22;1087;50.226;8.682;2023-02-18T04:11:26;11.40;99.90
2162;DHT22;1087;50.226;8.682;2023-02-18T04:13:52;11.40;99.90
2162;DHT22;1087;50.226;8.682;2023-02-18T04:16:17;11.40;99.90
2162;DHT22;1087;50.226;8.682;2023-02-18T04:18:43;11.40;99.90
2162;DHT22;1087;50.226;8.682;2023-02-18T04:21:08;11.40;99.90
2162;DHT22;1087;50.226;8.682;2023-02-18T04:23:34;11.40;99.90
2162;DHT22;1087;50.226;8.682;2023-02-18T04:26:00;11.40;99.90
2162;DHT22;1087;50.226;8.682;2023-02-18T04:28:25;11.40;99.90
2162;DHT22;1087;50.226;8.682;2023-02-18T04:30:51;11.40;99.90
2162;DHT22;1087;50.226;8.682;2023-02-18T04:33:16;11.40;99.90
2162;DHT22;1087;50.226;8.682;2023-02-18T04:35:42;11.40;99.90
2162;DHT22;1087;50.226;8.682;2023-02-18T04:38:08;11.40;99.90
2162;DHT22;1087;50.226;8.682;2023-02-18T04:40:34;11.40;99.90
2162;DHT22;1087;50.226;8.682;2023-02-18T04:43:00;11.40;99.90
2162;DHT22;1087;50.226;8.682;2023-02-18T04:45:26;11.50;99.90
2162;DHT22;1087;50.226;8.682;2023-02-18T04:47:52;11.50;99.90
2162;DHT22;1087;50.226;8.682;2023-02-18T04:50:19;11.50;99.90
2162;DHT22;1087;50.226;8.682;2023-02-18T04:52:45;11.40;99.90
2162;DHT22;1087;50.226;8.682;2023-02-18T04:55:11;11.40;99.90
2162;DHT22;1087;50.226;8.682;2023-02-18T04:57:37;11.40;99.90
2162;DHT22;1087;50.226;8.682;2023-02-18T05:00:04;11.40;99.90
2162;DHT22;1087;50.226;8.682;2023-02-18T05:02:31;11.40;99.90
2162;DHT22;1087;50.226;8.682;2023-02-18T05:04:57;11.40;99.90
2162;DHT22;1087;50.226;8.682;2023-02-18T05:07:23;11.40;99.90
2162;DHT22;1087;50.226;8.682;2023-02-18T05:09:48;11.40;99.90
2162;DHT22;1087;50.226;8.682;2023-02-18T05:12:14;11.50;99.90
2162;DHT22;1087;50.226;8.682;2023-02-18T05:14:39;11.50;99.90
2162;DHT22;1087;50.226;8.682;2023-02-18T05:17:05;11.40;99.90
2162;DHT22;1087;50.226;8.682;2023-02-18T05:19:30;11.50;99.90
2162;DHT22;1087;50.226;8.682;2023-02-18T05:21:56;11.40;99.90
2162;DHT22;1087;50.226;8.682;2023-02-18T05:24:22;11.50;99.90
2162;DHT22;1087;50.226;8.682;2023-02-18T05:26:47;11.40;99.90
2162;DHT22;1087;50.226;8.682;2023-02-18T05:29:13;11.40;99.90
2162;DHT22;1087;50.226;8.682;2023-02-18T05:31:38;11.50;99.90
2162;DHT22;1087;50.226;8.682;2023-02-18T05:34:04;11.40;99.90
2162;DHT22;1087;50.226;8.682;2023-02-18T05:36:30;11.40;99.90
2162;DHT22;1087;50.226;8.682;2023-02-18T05:38:55;11.50;99.90
2162;DHT22;1087;50.226;8.682;2023-02-18T05:41:21;11.40;99.90
2162;DHT22;1087;50.226;8.682;2023-02-18T05:43:46;11.30;99.90
2162;DHT22;1087;50.226;8.682;2023-02-18T05:46:30;11.30;99.90
2162;DHT22;1087;50.226;8.682;2023-02-18T05:48:56;11.30;99.90
2162;DHT22;1087;50.226;8.682;2023-02-18T05:51:21;11.20;99.90
2162;DHT22;1087;50.226;8.682;2023-02-18T05:53:47;11.20;99.90
2162;DHT22;1087;50.226;8.682;2023-02-18T05:56:12;11.10;99.90
2162;DHT22;1087;50.226;8.682;2023-02-18T05:58:38;11.20;99.90
2162;DHT22;1087;50.226;8.682;2023-02-18T06:01:03;11.20;99.90
2162;DHT22;1087;50.226;8.682;2023-02-18T06:03:29;11.10;99.90
2162;DHT22;1087;50.226;8.682;2023-02-18T06:05:55;11.10;99.90
2162;DHT22;1087;50.226;8.682;2023-02-18T06:08:21;11.20;99.90
2162;DHT22;1087;50.226;8.682;2023-02-18T06:10:47;11.10;99.90
2162;DHT22;1087;50.226;8.682;2023-02-18T06:13:13;11.00;99.90
2162;DHT22;1087;50.226;8.682;2023-02-18T06:15:38;11.00;99.90
2162;DHT22;1087;50.226;8.682;2023-02-18T06:18:05;11.00;99.90
2162;DHT22;1087;50.226;8.682;2023-02-18T06:20:31;11.00;99.90
2162;DHT22;1087;50.226;8.682;2023-02-18T06:22:57;11.00;99.90
2162;DHT22;1087;50.226;8.682;2023-02-18T06:25:22;11.10;99.90
2162;DHT22;1087;50.226;8.682;2023-02-18T06:27:48;11.00;99.90
2162;DHT22;1087;50.226;8.682;2023-02-18T06:30:13;11.00;99.90
2162;DHT22;1087;50.226;8.682;2023-02-18T06:32:39;11.00;99.90
2162;DHT22;1087;50.226;8.682;2023-02-18T06:35:05;11.00;99.90
2162;DHT22;1087;50.226;8.682;2023-02-18T06:37:31;11.00;99.90
2162;DHT22;1087;50.226;8.682;2023-02-18T06:39:56;11.00;99.90
2162;DHT22;1087;50.226;8.682;2023-02-18T06:42:22;11.10;99.90
2162;DHT22;1087;50.226;8.682;2023-02-18T06:44:47;11.10;99.90
2162;DHT22;1087;50.226;8.682;2023-02-18T06:47:13;11.10;99.90
2162;DHT22;1087;50.226;8.682;2023-02-18T06:49:38;11.00;99.90
2162;DHT22;1087;50.226;8.682;2023-02-18T06:52:04;11.00;99.90
2162;DHT22;1087;50.226;8.682;2023-02-18T06:54:30;11.10;99.90
2162;DHT22;1087;50.226;8.682;2023-02-18T06:56:56;11.10;99.90
2162;DHT22;1087;50.226;8.682;2023-02-18T06:59:22;11.10;99.90
2162;DHT22;1087;50.226;8.682;2023-02-18T07:01:48;11.10;99.90
2162;DHT22;1087;50.226;8.682;2023-02-18T07:04:13;11.20;99.90
2162;DHT22;1087;50.226;8.682;2023-02-18T07:06:39;11.20;99.90
2162;DHT22;1087;50.226;8.682;2023-02-18T07:09:04;11.10;99.90
2162;DHT22;1087;50.226;8.682;2023-02-18T07:11:30;11.10;99.90
2162;DHT22;1087;50.226;8.682;2023-02-18T07:13:56;11.00;99.90
2162;DHT22;1087;50.226;8.682;2023-02-18T07:16:21;11.10;99.90
2162;DHT22;1087;50.226;8.682;2023-02-18T07:18:47;11.00;99.90
2162;DHT22;1087;50.226;8.682;2023-02-18T07:21:12;11.00;99.90
2162;DHT22;1087;50.226;8.682;2023-02-18T07:23:38;11.10;99.90
2162;DHT22;1087;50.226;8.682;2023-02-18T07:26:09;11.10;99.90
2162;DHT22;1087;50.226;8.682;2023-02-18T07:28:35;11.10;99.90
2162;DHT22;1087;50.226;8.682;2023-02-18T07:31:01;11.10;99.90
2162;DHT22;1087;50.226;8.682;2023-02-18T07:33:26;11.00;99.90
2162;DHT22;1087;50.226;8.682;2023-02-18T07:35:54;11.10;99.90
2162;DHT22;1087;50.226;8.682;2023-02-18T07:38:20;11.10;99.90
2162;DHT22;1087;50.226;8.682;2023-02-18T07:40:46;11.20;99.90
2162;DHT22;1087;50.226;8.682;2023-02-18T07:43:11;11.10;99.90
2162;DHT22;1087;50.226;8.682;2023-02-18T07:45:38;11.10;99.90
2162;DHT22;1087;50.226;8.682;2023-02-18T07:48:03;11.10;99.90
2162;DHT22;1087;50.226;8.682;2023-02-18T07:50:29;11.10;99.90
2162;DHT22;1087;50.226;8.682;2023-02-18T07:52:59;11.10;99.90
2162;DHT22;1087;50.226;8.682;2023-02-18T07:55:25;11.10;99.90
2162;DHT22;1087;50.226;8.682;2023-02-18T07:58:11;11.10;99.90
2162;DHT22;1087;50.226;8.682;2023-02-18T08:00:36;11.00;99.90
2162;DHT22;1087;50.226;8.682;2023-02-18T08:03:02;11.00;99.90
2162;DHT22;1087;50.226;8.682;2023-02-18T08:05:28;11.00;99.90
2162;DHT22;1087;50.226;8.682;2023-02-18T08:07:53;11.10;99.90
2162;DHT22;1087;50.226;8.682;2023-02-18T08:10:19;11.10;99.90
2162;DHT22;1087;50.226;8.682;2023-02-18T08:12:44;11.10;99.90
2162;DHT22;1087;50.226;8.682;2023-02-18T08:15:12;11.10;99.90
2162;DHT22;1087;50.226;8.682;2023-02-18T08:17:38;11.10;99.90
2162;DHT22;1087;50.226;8.682;2023-02-18T08:20:04;11.10;99.90
2162;DHT22;1087;50.226;8.682;2023-02-18T08:22:30;11.10;99.90
2162;DHT22;1087;50.226;8.682;2023-02-18T08:24:56;11.10;99.90
2162;DHT22;1087;50.226;8.682;2023-02-18T08:27:22;11.20;99.90
2162;DHT22;1087;50.226;8.682;2023-02-18T08:29:48;11.20;99.90
2162;DHT22;1087;50.226;8.682;2023-02-18T08:32:14;11.10;99.90
2162;DHT22;1087;50.226;8.682;2023-02-18T08:34:39;11.10;99.90
2162;DHT22;1087;50.226;8.682;2023-02-18T08:37:05;11.10;99.90
2162;DHT22;1087;50.226;8.682;2023-02-18T08:39:34;11.20;99.90
2162;DHT22;1087;50.226;8.682;2023-02-18T08:42:00;11.20;99.90
2162;DHT22;1087;50.226;8.682;2023-02-18T08:44:26;11.20;99.90
2162;DHT22;1087;50.226;8.682;2023-02-18T08:46:51;11.20;99.90
2162;DHT22;1087;50.226;8.682;2023-02-18T08:49:17;11.20;99.90
2162;DHT22;1087;50.226;8.682;2023-02-18T08:51:48;11.20;99.90
2162;DHT22;1087;50.226;8.682;2023-02-18T08:54:14;11.30;99.90
2162;DHT22;1087;50.226;8.682;2023-02-18T08:56:39;11.30;99.90
2162;DHT22;1087;50.226;8.682;2023-02-18T08:59:05;11.30;99.90
2162;DHT22;1087;50.226;8.682;2023-02-18T09:01:30;11.30;99.90
2162;DHT22;1087;50.226;8.682;2023-02-18T09:03:56;11.30;99.90
2162;DHT22;1087;50.226;8.682;2023-02-18T09:06:23;11.30;99.90
2162;DHT22;1087;50.226;8.682;2023-02-18T09:08:49;11.30;99.90
2162;DHT22;1087;50.226;8.682;2023-02-18T09:11:14;11.30;99.90
2162;DHT22;1087;50.226;8.682;2023-02-18T09:13:41;11.30;99.90
2162;DHT22;1087;50.226;8.682;2023-02-18T09:16:12;11.30;99.90
2162;DHT22;1087;50.226;8.682;2023-02-18T09:18:39;11.30;99.90
2162;DHT22;1087;50.226;8.682;2023-02-18T09:21:06;11.40;99.90
2162;DHT22;1087;50.226;8.682;2023-02-18T09:23:33;11.40;99.90
2162;DHT22;1087;50.226;8.682;2023-02-18T09:26:02;11.40;99.90
2162;DHT22;1087;50.226;8.682;2023-02-18T09:28:28;11.30;99.90
2162;DHT22;1087;50.226;8.682;2023-02-18T09:30:53;11.40;99.90
2162;DHT22;1087;50.226;8.682;2023-02-18T09:33:19;11.40;99.90
2162;DHT22;1087;50.226;8.682;2023-02-18T09:35:45;11.30;99.90
2162;DHT22;1087;50.226;8.682;2023-02-18T09:38:13;11.30;99.90
2162;DHT22;1087;50.226;8.682;2023-02-18T09:40:43;11.30;99.90
2162;DHT22;1087;50.226;8.682;2023-02-18T09:43:39;11.30;99.90
2162;DHT22;1087;50.226;8.682;2023-02-18T09:46:23;11.30;99.90
2162;DHT22;1087;50.226;8.682;2023-02-18T09:48:52;11.30;99.90
2162;DHT22;1087;50.226;8.682;2023-02-18T09:51:18;11.30;99.90
2162;DHT22;1087;50.226;8.682;2023-02-18T09:53:44;11.30;99.90
2162;DHT22;1087;50.226;8.682;2023-02-18T09:56:19;11.30;99.90
2162;DHT22;1087;50.226;8.682;2023-02-18T09:58:48;11.40;99.90
2162;DHT22;1087;50.226;8.682;2023-02-18T10:03:48;11.40;99.90
2162;DHT22;1087;50.226;8.682;2023-02-18T10:06:23;11.40;99.90
2162;DHT22;1087;50.226;8.682;2023-02-18T10:08:51;11.40;99.90
2162;DHT22;1087;50.226;8.682;2023-02-18T10:11:29;11.40;99.90
2162;DHT22;1087;50.226;8.682;2023-02-18T10:13:55;11.50;99.90
2162;DHT22;1087;50.226;8.682;2023-02-18T10:16:22;11.50;99.90
2162;DHT22;1087;50.226;8.682;2023-02-18T10:18:53;11.50;99.90
2162;DHT22;1087;50.226;8.682;2023-02-18T10:21:23;11.50;99.90
2162;DHT22;1087;50.226;8.682;2023-02-18T10:23:54;11.50;99.90
2162;DHT22;1087;50.226;8.682;2023-02-18T10:26:22;11.60;99.90
2162;DHT22;1087;50.226;8.682;2023-02-18T10:28:47;11.60;99.90
2162;DHT22;1087;50.226;8.682;2023-02-18T10:31:21;11.70;99.90
2162;DHT22;1087;50.226;8.682;2023-02-18T10:44:30;11.70;99.90
2162;DHT22;1087;50.226;8.682;2023-02-18T10:52:18;11.70;99.90
2162;DHT22;1087;50.226;8.682;2023-02-18T10:54:52;11.70;99.90
2162;DHT22;1087;50.226;8.682;2023-02-18T10:57:23;11.60;99.90
2162;DHT22;1087;50.226;8.682;2023-02-18T11:02:38;11.60;99.90
2162;DHT22;1087;50.226;8.682;2023-02-18T11:05:25;11.50;99.90
2162;DHT22;1087;50.226;8.682;2023-02-18T11:07:54;11.50;99.90
2162;DHT22;1087;50.226;8.682;2023-02-18T11:10:28;11.50;99.90
2162;DHT22;1087;50.226;8.682;2023-02-18T11:13:00;11.40;99.90
2162;DHT22;1087;50.226;8.682;2023-02-18T11:15:27;11.40;99.90
2162;DHT22;1087;50.226;8.682;2023-02-18T11:17:56;11.40;99.90
2162;DHT22;1087;50.226;8.682;2023-02-18T11:22:51;11.40;99.90
2162;DHT22;1087;50.226;8.682;2023-02-18T11:25:23;11.40;99.90
2162;DHT22;1087;50.226;8.682;2023-02-18T11:27:56;11.40;99.90
2162;DHT22;1087;50.226;8.682;2023-02-18T11:32:50;11.50;99.90
2162;DHT22;1087;50.226;8.682;2023-02-18T11:35:22;11.50;99.90
2162;DHT22;1087;50.226;8.682;2023-02-18T11:37:49;11.50;99.90
2162;DHT22;1087;50.226;8.682;2023-02-18T11:40:29;11.50;99.90
2162;DHT22;1087;50.226;8.682;2023-02-18T11:45:30;11.50;99.90
2162;DHT22;1087;50.226;8.682;2023-02-18T11:47:59;11.60;99.90
2162;DHT22;1087;50.226;8.682;2023-02-18T11:50:25;11.60;99.90
2162;DHT22;1087;50.226;8.682;2023-02-18T11:52:55;11.60;99.90
2162;DHT22;1087;50.226;8.682;2023-02-18T11:55:27;11.60;99.90
2162;DHT22;1087;50.226;8.682;2023-02-18T11:57:58;11.50;99.90
2162;DHT22;1087;50.226;8.682;2023-02-18T12:00:41;11.50;99.90
2162;DHT22;1087;50.226;8.682;2023-02-18T12:03:30;11.50;99.90
2162;DHT22;1087;50.226;8.682;2023-02-18T12:06:02;11.60;99.90
2162;DHT22;1087;50.226;8.682;2023-02-18T12:08:33;11.50;99.90
2162;DHT22;1087;50.226;8.682;2023-02-18T12:11:04;11.50;99.90
2162;DHT22;1087;50.226;8.682;2023-02-18T12:30:00;11.60;99.90
2162;DHT22;1087;50.226;8.682;2023-02-18T12:38:16;11.70;99.90
2162;DHT22;1087;50.226;8.682;2023-02-18T12:41:12;11.70;99.90
2162;DHT22;1087;50.226;8.682;2023-02-18T12:47:45;11.60;99.90
2162;DHT22;1087;50.226;8.682;2023-02-18T12:50:15;11.60;99.90
2162;DHT22;1087;50.226;8.682;2023-02-18T12:52:57;11.70;99.90
2162;DHT22;1087;50.226;8.682;2023-02-18T13:07:06;11.70;99.90
2162;DHT22;1087;50.226;8.682;2023-02-18T13:12:54;11.50;99.90
2162;DHT22;1087;50.226;8.682;2023-02-18T13:15:30;11.50;99.90
2162;DHT22;1087;50.226;8.682;2023-02-18T13:18:00;11.50;99.90
2162;DHT22;1087;50.226;8.682;2023-02-18T13:20:46;11.50;99.90
2162;DHT22;1087;50.226;8.682;2023-02-18T13:23:19;11.50;99.90
2162;DHT22;1087;50.226;8.682;2023-02-18T13:25:47;11.60;99.90
2162;DHT22;1087;50.226;8.682;2023-02-18T13:28:34;11.60;99.90
2162;DHT22;1087;50.226;8.682;2023-02-18T13:33:50;11.60;99.90
2162;DHT22;1087;50.226;8.682;2023-02-18T13:36:35;11.60;99.90
2162;DHT22;1087;50.226;8.682;2023-02-18T13:39:11;11.70;99.90
2162;DHT22;1087;50.226;8.682;2023-02-18T13:41:43;11.60;99.90
2162;DHT22;1087;50.226;8.682;2023-02-18T13:46:56;11.70;99.90
2162;DHT22;1087;50.226;8.682;2023-02-18T13:49:31;11.70;99.90
2162;DHT22;1087;50.226;8.682;2023-02-18T13:51:58;11.80;99.90
2162;DHT22;1087;50.226;8.682;2023-02-18T13:54:27;11.80;99.90
2162;DHT22;1087;50.226;8.682;2023-02-18T13:59:40;11.70;99.90
2162;DHT22;1087;50.226;8.682;2023-02-18T14:07:26;11.80;99.90
2162;DHT22;1087;50.226;8.682;2023-02-18T14:09:58;11.60;99.90
2162;DHT22;1087;50.226;8.682;2023-02-18T14:20:42;11.60;99.90
2162;DHT22;1087;50.226;8.682;2023-02-18T14:25:39;11.60;99.90
2162;DHT22;1087;50.226;8.682;2023-02-18T14:28:35;11.40;99.90
2162;DHT22;1087;50.226;8.682;2023-02-18T14:36:49;11.70;99.90
2162;DHT22;1087;50.226;8.682;2023-02-18T14:39:32;11.60;99.90
2162;DHT22;1087;50.226;8.682;2023-02-18T14:45:17;11.60;99.90
2162;DHT22;1087;50.226;8.682;2023-02-18T14:47:50;11.60;99.90
2162;DHT22;1087;50.226;8.682;2023-02-18T14:50:20;11.60;99.90
2162;DHT22;1087;50.226;8.682;2023-02-18T14:52:56;11.60;99.90
2162;DHT22;1087;50.226;8.682;2023-02-18T14:55:28;11.60;99.90
2162;DHT22;1087;50.226;8.682;2023-02-18T14:58:00;11.60;99.90
2162;DHT22;1087;50.226;8.682;2023-02-18T15:00:28;11.70;99.90
2162;DHT22;1087;50.226;8.682;2023-02-18T15:02:57;11.60;99.90
2162;DHT22;1087;50.226;8.682;2023-02-18T15:05:25;11.60;99.90
2162;DHT22;1087;50.226;8.682;2023-02-18T15:07:59;11.70;99.90
2162;DHT22;1087;50.226;8.682;2023-02-18T15:12:56;11.70;99.90
2162;DHT22;1087;50.226;8.682;2023-02-18T15:15:23;11.60;99.90
2162;DHT22;1087;50.226;8.682;2023-02-18T15:17:49;11.70;99.90
2162;DHT22;1087;50.226;8.682;2023-02-18T15:20:15;11.60;99.90
2162;DHT22;1087;50.226;8.682;2023-02-18T15:22:42;11.70;99.90
2162;DHT22;1087;50.226;8.682;2023-02-18T15:25:10;11.70;99.90
2162;DHT22;1087;50.226;8.682;2023-02-18T15:27:39;11.60;99.90
2162;DHT22;1087;50.226;8.682;2023-02-18T15:30:20;11.70;99.90
2162;DHT22;1087;50.226;8.682;2023-02-18T15:32:53;11.70;99.90
2162;DHT22;1087;50.226;8.682;2023-02-18T15:35:21;11.70;99.90
2162;DHT22;1087;50.226;8.682;2023-02-18T15:37:53;11.70;99.90
2162;DHT22;1087;50.226;8.682;2023-02-18T15:40:21;11.70;99.90
2162;DHT22;1087;50.226;8.682;2023-02-18T15:42:50;11.70;99.90
2162;DHT22;1087;50.226;8.682;2023-02-18T15:45:19;11.70;99.90
2162;DHT22;1087;50.226;8.682;2023-02-18T15:47:51;11.70;99.90
2162;DHT22;1087;50.226;8.682;2023-02-18T15:50:28;11.70;99.90
2162;DHT22;1087;50.226;8.682;2023-02-18T15:52:56;11.70;99.90
2162;DHT22;1087;50.226;8.682;2023-02-18T15:55:42;11.80;99.90
2162;DHT22;1087;50.226;8.682;2023-02-18T15:58:17;11.60;99.90
2162;DHT22;1087;50.226;8.682;2023-02-18T16:03:27;11.70;99.90
2162;DHT22;1087;50.226;8.682;2023-02-18T16:06:17;11.70;99.90
2162;DHT22;1087;50.226;8.682;2023-02-18T16:09:02;11.70;99.90
2162;DHT22;1087;50.226;8.682;2023-02-18T16:11:48;11.70;99.90
2162;DHT22;1087;50.226;8.682;2023-02-18T16:14:25;11.70;99.90
2162;DHT22;1087;50.226;8.682;2023-02-18T16:17:20;11.70;99.90
2162;DHT22;1087;50.226;8.682;2023-02-18T16:19:57;11.70;99.90
2162;DHT22;1087;50.226;8.682;2023-02-18T16:27:36;11.70;99.90
2162;DHT22;1087;50.226;8.682;2023-02-18T16:30:13;11.60;99.90
2162;DHT22;1087;50.226;8.682;2023-02-18T16:32:40;11.70;99.90
2162;DHT22;1087;50.226;8.682;2023-02-18T16:35:06;11.70;99.90
2162;DHT22;1087;50.226;8.682;2023-02-18T16:37:31;11.70;99.90
2162;DHT22;1087;50.226;8.682;2023-02-18T16:40:20;11.70;99.90
2162;DHT22;1087;50.226;8.682;2023-02-18T16:42:46;11.70;99.90
2162;DHT22;1087;50.226;8.682;2023-02-18T16:45:12;11.70;99.90
2162;DHT22;1087;50.226;8.682;2023-02-18T16:47:38;11.70;99.90
2162;DHT22;1087;50.226;8.682;2023-02-18T16:50:05;11.70;99.90
2162;DHT22;1087;50.226;8.682;2023-02-18T16:52:31;11.70;99.90
2162;DHT22;1087;50.226;8.682;2023-02-18T16:54:57;11.60;99.90
2162;DHT22;1087;50.226;8.682;2023-02-18T16:57:22;11.60;99.90
2162;DHT22;1087;50.226;8.682;2023-02-18T16:59:48;11.70;99.90
2162;DHT22;1087;50.226;8.682;2023-02-18T17:02:19;11.60;99.90
2162;DHT22;1087;50.226;8.682;2023-02-18T17:04:46;11.70;99.90
2162;DHT22;1087;50.226;8.682;2023-02-18T17:07:11;11.80;99.90
2162;DHT22;1087;50.226;8.682;2023-02-18T17:09:37;11.70;99.90
2162;DHT22;1087;50.226;8.682;2023-02-18T17:12:03;11.70;99.90
2162;DHT22;1087;50.226;8.682;2023-02-18T17:14:29;11.70;99.90
2162;DHT22;1087;50.226;8.682;2023-02-18T17:16:56;11.60;99.90
2162;DHT22;1087;50.226;8.682;2023-02-18T17:19:21;11.60;99.90
2162;DHT22;1087;50.226;8.682;2023-02-18T17:21:47;11.60;99.90
2162;DHT22;1087;50.226;8.682;2023-02-18T17:24:15;11.60;99.90
2162;DHT22;1087;50.226;8.682;2023-02-18T17:26:41;11.50;99.90
2162;DHT22;1087;50.226;8.682;2023-02-18T17:29:07;11.60;99.90
2162;DHT22;1087;50.226;8.682;2023-02-18T17:31:37;11.60;99.90
2162;DHT22;1087;50.226;8.682;2023-02-18T17:34:06;11.60;99.90
2162;DHT22;1087;50.226;8.682;2023-02-18T17:36:32;11.70;99.90
2162;DHT22;1087;50.226;8.682;2023-02-18T17:38:58;11.60;99.90
2162;DHT22;1087;50.226;8.682;2023-02-18T17:41:24;11.60;99.90
2162;DHT22;1087;50.226;8.682;2023-02-18T17:43:50;11.50;99.90
2162;DHT22;1087;50.226;8.682;2023-02-18T17:46:17;11.60;99.90
2162;DHT22;1087;50.226;8.682;2023-02-18T17:48:44;11.60;99.90
2162;DHT22;1087;50.226;8.682;2023-02-18T17:51:22;11.50;99.90
2162;DHT22;1087;50.226;8.682;2023-02-18T17:53:48;11.50;99.90
2162;DHT22;1087;50.226;8.682;2023-02-18T17:56:14;11.60;99.90
2162;DHT22;1087;50.226;8.682;2023-02-18T17:58:39;11.60;99.90
2162;DHT22;1087;50.226;8.682;2023-02-18T18:01:05;11.60;99.90
2162;DHT22;1087;50.226;8.682;2023-02-18T18:03:30;11.50;99.90
2162;DHT22;1087;50.226;8.682;2023-02-18T18:05:56;11.60;99.90
2162;DHT22;1087;50.226;8.682;2023-02-18T18:08:22;11.60;99.90
2162;DHT22;1087;50.226;8.682;2023-02-18T18:10:58;11.60;99.90
2162;DHT22;1087;50.226;8.682;2023-02-18T18:13:29;11.60;99.90
2162;DHT22;1087;50.226;8.682;2023-02-18T18:15:57;11.60;99.90
2162;DHT22;1087;50.226;8.682;2023-02-18T18:18:22;11.60;99.90
2162;DHT22;1087;50.226;8.682;2023-02-18T18:20:55;11.60;99.90
2162;DHT22;1087;50.226;8.682;2023-02-18T18:23:21;11.60;99.90
2162;DHT22;1087;50.226;8.682;2023-02-18T18:25:49;11.60;99.90
2162;DHT22;1087;50.226;8.682;2023-02-18T18:28:15;11.60;99.90
2162;DHT22;1087;50.226;8.682;2023-02-18T18:30:44;11.50;99.90
2162;DHT22;1087;50.226;8.682;2023-02-18T18:33:16;11.50;99.90
2162;DHT22;1087;50.226;8.682;2023-02-18T18:35:44;11.50;99.90
2162;DHT22;1087;50.226;8.682;2023-02-18T18:38:11;11.50;99.90
2162;DHT22;1087;50.226;8.682;2023-02-18T18:40:38;11.50;99.90
2162;DHT22;1087;50.226;8.682;2023-02-18T18:43:04;11.40;99.90
2162;DHT22;1087;50.226;8.682;2023-02-18T18:45:35;11.30;99.90
2162;DHT22;1087;50.226;8.682;2023-02-18T18:48:05;11.40;99.90
2162;DHT22;1087;50.226;8.682;2023-02-18T18:50:31;11.40;99.90
2162;DHT22;1087;50.226;8.682;2023-02-18T18:52:58;11.40;99.90